Time;durP1;ratioP1;P1;durP2;ratioP2;P2;SDS_P1;SDS_P2;PMS_P1;PMS_P2;Temp;Humidity;BMP_temperature;BMP_pressure;BME280_temperature;BME280_humidity;BME280_pressure;Samples;Min_cycle;Max_cycle;Signal;HPM_P1;HPM_P2
2023/03/04 00:01:19;;;;;;;16.85;3.70;;;6.40;99.90;;;;;;5034182;28;20519;-67
2023/03/04 00:03:44;;;;;;;14.15;3.25;;;6.40;99.90;;;;;;5033807;28;20128;-68
2023/03/04 00:06:10;;;;;;;17.65;3.85;;;6.30;99.90;;;;;;5034209;28;20033;-67
2023/03/04 00:08:36;;;;;;;15.55;3.20;;;6.40;99.90;;;;;;5034016;28;20056;-67
2023/03/04 00:11:02;;;;;;;16.80;3.05;;;6.30;99.90;;;;;;5016598;28;20081;-68
2023/03/04 00:13:28;;;;;;;16.83;3.15;;;6.40;99.90;;;;;;5033808;28;20037;-68
2023/03/04 00:15:54;;;;;;;18.75;3.63;;;6.30;99.90;;;;;;5033986;28;20479;-67
2023/03/04 00:18:22;;;;;;;15.88;2.50;;;6.30;99.90;;;;;;5033683;28;20112;-67
2023/03/04 00:20:49;;;;;;;11.73;3.33;;;6.30;99.90;;;;;;5033733;28;20080;-67
2023/03/04 00:23:15;;;;;;;15.23;2.88;;;6.30;99.90;;;;;;5015818;28;20050;-68
2023/03/04 00:25:40;;;;;;;14.10;2.22;;;6.40;99.90;;;;;;5033907;28;20564;-68
2023/03/04 00:28:06;;;;;;;12.50;2.65;;;6.40;99.90;;;;;;5033091;28;20037;-68
2023/03/04 00:30:33;;;;;;;13.45;2.10;;;6.40;99.90;;;;;;5033632;28;20120;-67
2023/03/04 00:32:58;;;;;;;10.80;2.50;;;6.40;99.90;;;;;;5033515;28;20104;-66
2023/03/04 00:35:24;;;;;;;13.90;3.15;;;6.40;99.90;;;;;;5033654;28;20527;-66
2023/03/04 00:37:49;;;;;;;10.15;2.15;;;6.30;99.90;;;;;;5033366;28;20033;-66
2023/03/04 00:40:15;;;;;;;14.38;3.42;;;6.30;99.90;;;;;;5033420;28;20084;-66
2023/03/04 00:42:41;;;;;;;11.55;2.65;;;6.40;99.90;;;;;;5027907;28;20030;-67
2023/03/04 00:45:07;;;;;;;13.40;2.80;;;6.30;99.90;;;;;;5032045;28;20037;-66
2023/03/04 00:47:33;;;;;;;12.40;1.92;;;6.30;99.90;;;;;;5033205;28;20381;-66
2023/03/04 00:49:58;;;;;;;9.30;2.70;;;6.40;99.90;;;;;;5033690;28;20088;-66
2023/03/04 00:52:24;;;;;;;22.45;3.13;;;6.30;99.90;;;;;;5033263;28;20037;-68
2023/03/04 00:54:49;;;;;;;15.85;2.45;;;6.30;99.90;;;;;;5032859;28;20037;-68
2023/03/04 00:57:15;;;;;;;10.93;2.28;;;6.30;99.90;;;;;;5033219;28;20091;-68
2023/03/04 00:59:42;;;;;;;13.98;2.33;;;6.30;99.90;;;;;;5032833;28;20155;-68
2023/03/04 01:02:08;;;;;;;8.20;2.10;;;6.40;99.90;;;;;;5032089;28;20041;-68
2023/03/04 01:04:34;;;;;;;12.90;2.28;;;6.30;99.90;;;;;;5032645;28;20037;-68
2023/03/04 01:06:59;;;;;;;14.95;2.53;;;6.30;99.90;;;;;;5033102;28;20038;-68
2023/03/04 01:09:25;;;;;;;19.30;2.83;;;6.30;99.90;;;;;;5015184;28;20045;-69
2023/03/04 01:11:51;;;;;;;11.63;2.72;;;6.30;99.90;;;;;;5032802;28;20045;-68
2023/03/04 01:14:17;;;;;;;10.20;3.00;;;6.40;99.90;;;;;;5032507;28;20045;-67
2023/03/04 01:16:43;;;;;;;9.27;2.05;;;6.40;99.90;;;;;;5032743;28;20408;-68
2023/03/04 01:19:08;;;;;;;16.90;2.15;;;6.30;99.90;;;;;;5032561;28;20037;-67
2023/03/04 01:21:34;;;;;;;11.73;2.30;;;6.30;99.90;;;;;;5032841;28;20400;-68
2023/03/04 01:24:00;;;;;;;15.98;2.70;;;6.30;99.90;;;;;;5032516;28;20037;-68
2023/03/04 01:26:25;;;;;;;15.00;2.50;;;6.30;99.90;;;;;;5032543;28;20052;-68
2023/03/04 01:28:51;;;;;;;9.90;2.47;;;6.40;99.90;;;;;;5032240;28;20041;-68
2023/03/04 01:31:16;;;;;;;12.65;3.13;;;6.40;99.90;;;;;;5032496;28;20087;-68
2023/03/04 01:33:42;;;;;;;11.68;2.85;;;6.30;99.90;;;;;;5032298;28;20037;-68
2023/03/04 01:36:08;;;;;;;14.70;4.00;;;6.40;99.90;;;;;;5032238;28;20048;-68
2023/03/04 01:38:33;;;;;;;10.95;3.30;;;6.30;99.90;;;;;;5031811;28;20128;-69
2023/03/04 01:40:59;;;;;;;18.80;3.53;;;6.30;99.90;;;;;;5031601;28;20108;-68
2023/03/04 01:43:27;;;;;;;17.27;2.70;;;6.30;99.90;;;;;;5032007;28;20489;-66
2023/03/04 01:45:55;;;;;;;13.98;2.53;;;6.30;99.90;;;;;;5031894;28;20037;-66
2023/03/04 01:48:25;;;;;;;11.80;3.50;;;6.30;99.90;;;;;;5031976;28;20460;-66
2023/03/04 01:50:51;;;;;;;20.48;3.25;;;6.30;99.90;;;;;;5032314;28;20041;-69
2023/03/04 01:53:20;;;;;;;12.90;2.53;;;6.20;99.90;;;;;;5031871;28;20415;-66
2023/03/04 01:55:47;;;;;;;16.05;3.08;;;6.20;99.90;;;;;;5032013;28;20455;-66
2023/03/04 01:58:12;;;;;;;8.75;1.75;;;6.20;99.90;;;;;;5031638;28;20113;-66
2023/03/04 02:00:38;;;;;;;13.38;2.63;;;6.20;99.90;;;;;;5032002;28;20500;-66
2023/03/04 02:03:11;;;;;;;16.52;3.53;;;6.20;99.90;;;;;;4997650;28;20042;-67
2023/03/04 02:05:40;;;;;;;16.00;2.38;;;6.20;99.90;;;;;;5031992;28;20505;-66
2023/03/04 02:08:07;;;;;;;16.88;3.80;;;6.10;99.90;;;;;;5031571;28;20397;-67
2023/03/04 02:10:34;;;;;;;12.38;2.13;;;6.20;99.90;;;;;;5031531;28;20041;-66
2023/03/04 02:13:00;;;;;;;13.45;2.38;;;6.20;99.90;;;;;;5013750;28;20049;-67
2023/03/04 02:15:26;;;;;;;9.93;2.38;;;6.20;99.90;;;;;;5031759;28;20663;-67
2023/03/04 02:17:52;;;;;;;12.30;2.95;;;6.20;99.90;;;;;;5031716;28;20056;-67
2023/03/04 02:20:47;;;;;;;10.25;2.42;;;6.10;99.90;;;;;;5031830;28;20041;-66
2023/03/04 02:23:28;;;;;;;14.05;3.60;;;6.20;99.90;;;;;;5031211;28;20060;-66
2023/03/04 02:26:24;;;;;;;11.43;2.45;;;6.10;99.90;;;;;;5031744;28;20068;-67
2023/03/04 02:28:52;;;;;;;19.20;3.47;;;6.10;99.90;;;;;;5031474;28;20048;-67
2023/03/04 02:31:21;;;;;;;16.00;3.15;;;6.10;99.90;;;;;;5031277;28;20040;-66
2023/03/04 02:33:47;;;;;;;15.00;2.97;;;6.00;99.90;;;;;;5013291;28;20053;-66
2023/03/04 02:36:13;;;;;;;9.52;2.13;;;6.10;99.90;;;;;;5031341;28;20099;-66
2023/03/04 02:38:38;;;;;;;15.48;3.25;;;6.00;99.90;;;;;;5031176;28;20037;-66
2023/03/04 02:41:05;;;;;;;11.25;2.33;;;6.00;99.90;;;;;;5031604;28;20623;-66
2023/03/04 02:43:31;;;;;;;18.65;5.00;;;6.10;99.90;;;;;;5031114;28;20044;-66
2023/03/04 02:45:56;;;;;;;19.17;3.63;;;6.10;99.90;;;;;;5013545;28;20042;-67
2023/03/04 02:48:23;;;;;;;9.50;2.38;;;6.00;99.90;;;;;;5031174;28;20120;-66
2023/03/04 02:50:53;;;;;;;21.42;3.25;;;6.10;99.90;;;;;;5032139;28;20038;-66
2023/03/04 02:53:19;;;;;;;11.07;2.83;;;6.10;99.90;;;;;;5017478;28;20121;-66
2023/03/04 02:55:46;;;;;;;14.85;2.72;;;6.00;99.90;;;;;;5035401;28;20061;-67
2023/03/04 02:58:12;;;;;;;8.13;2.47;;;6.00;99.90;;;;;;5035128;28;20143;-67
2023/03/04 03:00:38;;;;;;;12.60;2.85;;;6.10;99.90;;;;;;5035403;28;20059;-66
2023/03/04 03:03:05;;;;;;;12.90;2.50;;;6.10;99.90;;;;;;5035010;28;20400;-66
2023/03/04 03:05:32;;;;;;;12.60;2.33;;;6.10;99.90;;;;;;5035327;28;20033;-66
2023/03/04 03:07:58;;;;;;;15.73;2.65;;;6.10;99.90;;;;;;5035111;28;20443;-66
2023/03/04 03:10:24;;;;;;;7.88;2.08;;;6.00;99.90;;;;;;5035235;28;20045;-66
2023/03/04 03:12:50;;;;;;;14.55;3.97;;;6.10;99.90;;;;;;5017564;28;20090;-67
2023/03/04 03:15:16;;;;;;;11.75;2.75;;;6.10;99.90;;;;;;5034548;28;20084;-66
2023/03/04 03:17:41;;;;;;;10.63;1.95;;;6.20;99.90;;;;;;5034897;28;20034;-66
2023/03/04 03:20:10;;;;;;;7.78;2.22;;;6.10;99.90;;;;;;5034970;28;20041;-67
2023/03/04 03:22:35;;;;;;;12.90;3.10;;;6.20;99.90;;;;;;5035070;28;20121;-67
2023/03/04 03:25:01;;;;;;;12.70;2.80;;;6.20;99.90;;;;;;5034624;28;20108;-66
2023/03/04 03:27:26;;;;;;;10.75;2.05;;;6.10;99.90;;;;;;5034882;28;20045;-67
2023/03/04 03:29:52;;;;;;;17.13;2.47;;;6.10;99.90;;;;;;5034339;28;20037;-66
2023/03/04 03:32:17;;;;;;;8.20;2.05;;;6.10;99.90;;;;;;5034684;28;20468;-66
2023/03/04 03:34:43;;;;;;;12.20;2.20;;;6.20;99.90;;;;;;5034435;28;20049;-66
2023/03/04 03:37:09;;;;;;;16.63;2.90;;;6.10;99.90;;;;;;5016848;28;20075;-66
2023/03/04 03:39:34;;;;;;;8.63;2.10;;;6.10;99.90;;;;;;5034406;28;20044;-67
2023/03/04 03:42:00;;;;;;;8.55;2.42;;;6.10;99.90;;;;;;5034611;28;20103;-67
2023/03/04 03:44:25;;;;;;;11.75;2.38;;;6.10;99.90;;;;;;5033965;28;20120;-67
2023/03/04 03:46:51;;;;;;;12.57;2.83;;;6.00;99.90;;;;;;5034160;28;20037;-66
2023/03/04 03:49:16;;;;;;;10.88;2.42;;;6.10;99.90;;;;;;5034232;28;20420;-66
2023/03/04 03:51:42;;;;;;;11.63;3.25;;;6.10;99.90;;;;;;5034500;28;20037;-66
2023/03/04 03:54:08;;;;;;;9.48;2.50;;;6.10;99.90;;;;;;5034030;28;20120;-67
2023/03/04 03:56:33;;;;;;;10.15;2.13;;;6.20;99.90;;;;;;5034190;28;20452;-67
2023/03/04 03:58:59;;;;;;;13.07;2.67;;;6.20;99.90;;;;;;5033872;28;20052;-67
2023/03/04 04:01:25;;;;;;;12.30;2.50;;;6.10;99.90;;;;;;5034259;28;20064;-67
2023/03/04 04:03:50;;;;;;;8.27;1.83;;;6.20;99.90;;;;;;5033189;28;20041;-67
2023/03/04 04:06:16;;;;;;;16.08;2.90;;;6.10;99.90;;;;;;5034082;28;20671;-67
2023/03/04 04:08:41;;;;;;;12.15;2.50;;;6.10;99.90;;;;;;5033947;28;20049;-66
2023/03/04 04:11:11;;;;;;;10.43;3.05;;;6.10;99.90;;;;;;5034036;28;20084;-66
2023/03/04 04:13:37;;;;;;;14.95;3.53;;;6.10;99.90;;;;;;5033591;28;20048;-66
2023/03/04 04:16:02;;;;;;;13.40;3.72;;;6.20;99.90;;;;;;5034078;28;20049;-66
2023/03/04 04:18:28;;;;;;;9.23;2.80;;;6.10;99.90;;;;;;5033699;28;20441;-67
2023/03/04 04:20:54;;;;;;;16.40;4.95;;;6.10;99.90;;;;;;5033780;28;20077;-66
2023/03/04 04:23:20;;;;;;;11.30;2.05;;;6.10;99.90;;;;;;5033392;28;20041;-66
2023/03/04 04:25:45;;;;;;;9.70;2.58;;;6.10;99.90;;;;;;5033682;28;20091;-66
2023/03/04 04:28:11;;;;;;;8.07;2.17;;;6.00;99.90;;;;;;5033280;28;20045;-67
2023/03/04 04:30:36;;;;;;;9.43;2.45;;;6.10;99.90;;;;;;5033889;28;20045;-67
2023/03/04 04:33:03;;;;;;;11.27;2.00;;;6.00;99.90;;;;;;5033279;28;20048;-67
2023/03/04 04:35:30;;;;;;;9.98;1.67;;;6.10;99.90;;;;;;5033473;28;20108;-66
2023/03/04 04:37:56;;;;;;;10.88;2.45;;;6.10;99.90;;;;;;5033326;28;20044;-66
2023/03/04 04:40:21;;;;;;;6.05;1.70;;;6.20;99.90;;;;;;5032070;28;20049;-66
2023/03/04 04:42:47;;;;;;;13.23;2.03;;;6.20;99.90;;;;;;5051987;28;20039;-66
2023/03/04 04:45:13;;;;;;;12.20;1.83;;;6.00;99.90;;;;;;5052200;28;20041;-66
2023/03/04 04:47:38;;;;;;;11.45;1.77;;;6.10;99.90;;;;;;5052536;28;20048;-66
2023/03/04 04:50:04;;;;;;;6.75;1.42;;;6.20;99.90;;;;;;5053243;28;20116;-66
2023/03/04 04:52:29;;;;;;;7.93;2.33;;;6.20;99.90;;;;;;5053287;28;20404;-66
2023/03/04 04:54:55;;;;;;;8.50;1.45;;;6.20;99.90;;;;;;5052802;28;20496;-67
2023/03/04 04:57:21;;;;;;;12.85;2.53;;;6.00;99.90;;;;;;5052730;28;20044;-66
2023/03/04 04:59:46;;;;;;;6.97;2.08;;;6.00;99.90;;;;;;5052818;28;20067;-66
2023/03/04 05:02:12;;;;;;;6.32;2.22;;;6.20;99.90;;;;;;5052969;28;20029;-66
2023/03/04 05:04:37;;;;;;;11.43;2.15;;;6.20;99.90;;;;;;5052760;28;20163;-67
2023/03/04 05:07:03;;;;;;;9.07;3.60;;;6.10;99.90;;;;;;5052621;28;20041;-66
2023/03/04 05:09:28;;;;;;;10.65;2.45;;;5.90;99.90;;;;;;5052664;28;20045;-67
2023/03/04 05:11:54;;;;;;;14.35;3.80;;;6.00;99.90;;;;;;5052724;28;20044;-66
2023/03/04 05:14:20;;;;;;;18.75;4.20;;;6.10;99.90;;;;;;5052463;28;20040;-66
2023/03/04 05:16:45;;;;;;;14.98;3.90;;;5.90;99.90;;;;;;5052694;28;20110;-67
2023/03/04 05:19:11;;;;;;;11.52;2.08;;;5.90;99.90;;;;;;5052303;28;20125;-66
2023/03/04 05:21:36;;;;;;;9.95;1.98;;;6.20;99.90;;;;;;5052416;28;20037;-67
2023/03/04 05:24:02;;;;;;;9.85;2.00;;;6.20;99.90;;;;;;5052085;28;20040;-68
2023/03/04 05:26:27;;;;;;;12.93;3.00;;;6.00;99.90;;;;;;5034375;28;20044;-68
2023/03/04 05:28:53;;;;;;;9.48;2.40;;;5.90;99.90;;;;;;5051752;28;20050;-68
2023/03/04 05:31:18;;;;;;;13.00;2.92;;;5.80;99.90;;;;;;5052016;28;20079;-68
2023/03/04 05:33:44;;;;;;;9.30;1.92;;;5.70;99.90;;;;;;5051758;28;20079;-68
2023/03/04 05:36:09;;;;;;;13.80;2.30;;;5.90;99.90;;;;;;5034621;28;20155;-67
2023/03/04 05:38:35;;;;;;;15.15;2.25;;;5.80;99.90;;;;;;5052104;28;20047;-68
2023/03/04 05:41:06;;;;;;;9.45;1.80;;;5.80;99.90;;;;;;5052186;28;20033;-68
2023/03/04 05:43:34;;;;;;;6.97;2.15;;;5.80;99.90;;;;;;5033985;28;20090;-68
2023/03/04 05:46:00;;;;;;;8.55;1.60;;;6.10;99.90;;;;;;5052245;28;20484;-68
2023/03/04 05:48:27;;;;;;;8.40;2.17;;;5.80;99.90;;;;;;5051936;28;20407;-68
2023/03/04 05:50:58;;;;;;;11.20;2.03;;;6.10;99.90;;;;;;5052148;28;20168;-67
2023/03/04 05:53:24;;;;;;;16.70;3.05;;;5.80;99.90;;;;;;5034186;28;20048;-68
2023/03/04 05:55:50;;;;;;;10.32;1.92;;;6.00;99.90;;;;;;5051907;28;20518;-67
2023/03/04 05:58:17;;;;;;;8.68;1.67;;;5.90;99.90;;;;;;5051601;28;20443;-68
2023/03/04 06:00:43;;;;;;;7.72;2.85;;;5.90;99.90;;;;;;5051881;28;20091;-69
2023/03/04 06:03:20;;;;;;;9.27;2.22;;;5.90;99.90;;;;;;5051595;28;20035;-68
2023/03/04 06:05:46;;;;;;;12.18;2.95;;;6.10;99.90;;;;;;5051755;28;20033;-68
2023/03/04 06:08:12;;;;;;;14.75;2.42;;;5.90;99.90;;;;;;5051521;28;20044;-68
2023/03/04 06:10:39;;;;;;;18.75;3.05;;;6.00;99.90;;;;;;5051776;28;20045;-69
2023/03/04 06:13:05;;;;;;;12.07;2.40;;;6.00;99.90;;;;;;5051578;28;20095;-68
2023/03/04 06:15:31;;;;;;;9.50;3.13;;;6.10;99.90;;;;;;5033927;28;20515;-69
2023/03/04 06:17:57;;;;;;;15.93;3.38;;;6.00;99.90;;;;;;5051563;28;20041;-68
2023/03/04 06:20:22;;;;;;;13.57;2.72;;;5.90;99.90;;;;;;5051979;28;20620;-68
2023/03/04 06:22:48;;;;;;;11.75;3.40;;;6.00;99.90;;;;;;5051332;28;20424;-69
2023/03/04 06:25:13;;;;;;;9.27;2.83;;;5.90;99.90;;;;;;5051588;28;20041;-68
2023/03/04 06:27:39;;;;;;;8.80;2.13;;;6.10;99.90;;;;;;5050831;28;20040;-68
2023/03/04 06:30:06;;;;;;;8.27;2.00;;;6.00;99.90;;;;;;5051640;28;20040;-68
2023/03/04 06:32:32;;;;;;;12.90;2.00;;;6.10;99.90;;;;;;5051630;28;20037;-69
2023/03/04 06:34:57;;;;;;;14.48;1.98;;;6.10;99.90;;;;;;5051392;28;20048;-68
2023/03/04 06:37:23;;;;;;;7.32;1.50;;;6.10;99.90;;;;;;5051377;28;20407;-68
2023/03/04 06:39:48;;;;;;;8.30;1.63;;;6.00;99.90;;;;;;5051371;28;20040;-67
2023/03/04 06:42:14;;;;;;;10.55;1.88;;;5.90;99.90;;;;;;5051468;28;20407;-68
2023/03/04 06:44:40;;;;;;;11.10;2.78;;;5.80;99.90;;;;;;5051210;28;20041;-68
2023/03/04 06:47:05;;;;;;;6.63;1.48;;;5.80;99.90;;;;;;5051417;28;20047;-68
2023/03/04 06:49:31;;;;;;;5.75;1.65;;;6.10;99.90;;;;;;5051212;28;20055;-68
2023/03/04 06:51:56;;;;;;;8.07;1.55;;;6.00;99.90;;;;;;5051186;28;20518;-69
2023/03/04 06:54:22;;;;;;;10.45;1.50;;;5.80;99.90;;;;;;5051108;28;20555;-68
2023/03/04 06:56:48;;;;;;;10.25;1.42;;;5.80;99.90;;;;;;5050786;28;20523;-68
2023/03/04 06:59:13;;;;;;;8.20;1.65;;;6.10;99.90;;;;;;5033140;28;20411;-68
2023/03/04 07:01:39;;;;;;;7.57;2.08;;;6.00;99.90;;;;;;5051113;28;20665;-68
2023/03/04 07:04:04;;;;;;;8.95;2.20;;;6.10;99.90;;;;;;5042274;28;20129;-68
2023/03/04 07:06:31;;;;;;;8.75;2.55;;;5.90;99.90;;;;;;5031026;28;20034;-68
2023/03/04 07:08:56;;;;;;;8.27;2.20;;;6.00;99.90;;;;;;5013470;28;20520;-68
2023/03/04 07:11:23;;;;;;;9.27;2.25;;;5.90;99.90;;;;;;5031398;28;20128;-68
2023/03/04 07:13:49;;;;;;;13.18;3.28;;;5.90;99.90;;;;;;5013203;28;20046;-69
2023/03/04 07:16:18;;;;;;;12.27;2.22;;;6.00;99.90;;;;;;5031096;28;20048;-68
2023/03/04 07:18:44;;;;;;;7.30;2.22;;;6.00;99.90;;;;;;5030932;28;20518;-68
2023/03/04 07:21:12;;;;;;;15.68;2.42;;;6.20;99.90;;;;;;5022789;28;20038;-69
2023/03/04 07:23:38;;;;;;;13.93;2.55;;;6.00;99.90;;;;;;5014510;28;20042;-69
2023/03/04 07:26:04;;;;;;;8.18;2.08;;;6.10;99.90;;;;;;5025472;28;20037;-69
2023/03/04 07:28:30;;;;;;;14.82;2.55;;;5.90;99.90;;;;;;5030904;28;20041;-69
2023/03/04 07:30:55;;;;;;;22.27;3.42;;;5.90;99.90;;;;;;5031226;28;20453;-68
2023/03/04 07:33:21;;;;;;;16.38;3.75;;;5.90;99.90;;;;;;5030837;28;20034;-68
2023/03/04 07:35:47;;;;;;;20.65;3.70;;;6.00;99.90;;;;;;5030687;28;20041;-68
2023/03/04 07:38:12;;;;;;;18.92;3.58;;;5.80;99.90;;;;;;5032103;28;20041;-68
2023/03/04 07:40:38;;;;;;;19.02;4.03;;;5.80;99.90;;;;;;5034794;28;20124;-68
2023/03/04 07:43:03;;;;;;;20.20;3.78;;;5.90;99.90;;;;;;5016347;28;20550;-69
2023/03/04 07:45:29;;;;;;;16.15;3.65;;;5.90;99.90;;;;;;5034644;28;20037;-67
2023/03/04 07:47:56;;;;;;;23.13;4.55;;;5.90;99.90;;;;;;5034382;28;20045;-68
2023/03/04 07:50:22;;;;;;;21.30;3.95;;;6.00;99.90;;;;;;5034333;28;20045;-67
2023/03/04 07:52:49;;;;;;;26.40;4.80;;;5.90;99.90;;;;;;5034235;28;20049;-68
2023/03/04 07:55:16;;;;;;;17.92;4.50;;;6.00;99.90;;;;;;5034321;28;20068;-69
2023/03/04 07:57:45;;;;;;;23.88;4.15;;;6.00;99.90;;;;;;5034071;28;20041;-69
2023/03/04 08:00:13;;;;;;;19.17;3.78;;;6.20;99.90;;;;;;5034209;28;20120;-69
2023/03/04 08:02:39;;;;;;;20.85;3.47;;;6.30;99.90;;;;;;5034038;28;20179;-69
2023/03/04 08:05:05;;;;;;;17.30;4.47;;;6.10;99.90;;;;;;5015999;28;20051;-68
2023/03/04 08:07:30;;;;;;;19.42;3.40;;;6.10;99.90;;;;;;5034203;28;20116;-68
2023/03/04 08:09:56;;;;;;;24.67;4.57;;;6.10;99.90;;;;;;5033806;28;20125;-68
2023/03/04 08:12:23;;;;;;;18.85;3.72;;;6.10;99.90;;;;;;5016678;28;20060;-68
2023/03/04 08:14:49;;;;;;;15.45;3.08;;;6.20;99.90;;;;;;5033850;28;20061;-68
2023/03/04 08:17:15;;;;;;;22.85;5.78;;;6.10;99.90;;;;;;5033798;28;20084;-68
2023/03/04 08:19:40;;;;;;;21.65;4.75;;;6.00;99.90;;;;;;5033634;28;20041;-68
2023/03/04 08:22:06;;;;;;;27.23;5.80;;;6.20;99.90;;;;;;5034006;28;20103;-68
2023/03/04 08:24:32;;;;;;;19.15;3.83;;;6.20;99.90;;;;;;5033663;28;20508;-68
2023/03/04 08:26:58;;;;;;;25.98;4.43;;;6.30;99.90;;;;;;5033823;28;20496;-68
2023/03/04 08:29:24;;;;;;;23.67;5.07;;;6.30;99.90;;;;;;5033454;28;20124;-68
2023/03/04 08:31:51;;;;;;;21.45;4.57;;;6.20;99.90;;;;;;5033670;28;20049;-67
2023/03/04 08:34:19;;;;;;;22.83;4.43;;;6.30;99.90;;;;;;5033663;28;20084;-68
2023/03/04 08:36:44;;;;;;;23.30;5.05;;;6.40;99.90;;;;;;5033695;28;20120;-68
2023/03/04 08:39:15;;;;;;;28.80;5.20;;;6.40;99.90;;;;;;5033318;28;20132;-68
2023/03/04 08:41:41;;;;;;;27.92;5.07;;;6.50;99.90;;;;;;5033609;28;20447;-68
2023/03/04 08:44:09;;;;;;;24.85;5.22;;;6.50;99.90;;;;;;5029826;28;20060;-68
2023/03/04 08:46:35;;;;;;;18.35;5.32;;;6.40;99.90;;;;;;5025959;28;20037;-67
2023/03/04 08:49:01;;;;;;;28.08;5.00;;;6.50;99.90;;;;;;5031457;28;20076;-68
2023/03/04 08:51:27;;;;;;;20.20;4.53;;;6.60;99.90;;;;;;5032839;28;20083;-67
2023/03/04 08:53:52;;;;;;;19.55;4.65;;;6.40;99.90;;;;;;5032615;28;20064;-67
2023/03/04 08:56:18;;;;;;;15.68;3.33;;;6.50;99.90;;;;;;5032932;28;20404;-68
2023/03/04 08:58:43;;;;;;;23.05;4.57;;;6.50;99.90;;;;;;5032784;28;20041;-68
2023/03/04 09:01:11;;;;;;;20.08;3.50;;;6.50;99.90;;;;;;5033007;28;20048;-66
2023/03/04 09:03:37;;;;;;;20.75;4.97;;;6.70;99.90;;;;;;5025141;28;20054;-67
2023/03/04 09:06:03;;;;;;;20.70;3.60;;;6.60;99.90;;;;;;5027216;28;20041;-67
2023/03/04 09:08:35;;;;;;;17.35;3.78;;;6.80;99.90;;;;;;5006497;28;20045;-68
2023/03/04 09:11:02;;;;;;;18.98;3.83;;;6.60;99.90;;;;;;5027385;28;20034;-67
2023/03/04 09:13:29;;;;;;;21.35;4.65;;;6.70;99.90;;;;;;5032508;28;20080;-68
2023/03/04 09:15:55;;;;;;;20.42;4.00;;;6.80;99.90;;;;;;5032772;28;20037;-67
2023/03/04 09:18:23;;;;;;;16.30;4.28;;;6.70;99.90;;;;;;5032888;28;20117;-67
2023/03/04 09:20:49;;;;;;;14.43;3.03;;;6.90;99.90;;;;;;5014749;28;20526;-70
2023/03/04 09:23:14;;;;;;;12.38;2.95;;;6.90;99.90;;;;;;5014167;28;20037;-70
2023/03/04 09:25:41;;;;;;;13.52;3.30;;;6.70;99.90;;;;;;5014962;28;20424;-71
2023/03/04 09:28:07;;;;;;;13.60;2.97;;;6.80;99.90;;;;;;5032363;28;20033;-71
2023/03/04 09:30:33;;;;;;;16.80;3.55;;;6.80;99.90;;;;;;5032394;28;20556;-71
2023/03/04 09:32:58;;;;;;;11.60;2.25;;;6.80;99.90;;;;;;5032378;28;20045;-70
2023/03/04 09:35:24;;;;;;;18.45;2.70;;;6.80;99.90;;;;;;5014890;28;20106;-71
2023/03/04 09:37:51;;;;;;;9.43;1.95;;;6.80;99.90;;;;;;5032417;28;20048;-71
2023/03/04 09:40:38;;;;;;;12.48;2.88;;;6.70;99.90;;;;;;5014625;28;20052;-71
2023/03/04 09:43:10;;;;;;;5.43;1.40;;;6.50;99.90;;;;;;5014415;28;20511;-70
2023/03/04 09:45:55;;;;;;;8.30;2.13;;;6.40;99.90;;;;;;5032564;28;20382;-70
2023/03/04 09:48:23;;;;;;;11.95;1.75;;;6.20;99.90;;;;;;5014642;28;20038;-71
2023/03/04 09:51:41;;;;;;;4.40;1.38;;;6.30;99.90;;;;;;5014370;28;20079;-70
2023/03/04 09:54:15;;;;;;;8.02;1.48;;;6.30;99.90;;;;;;4950771;28;20062;-71
2023/03/04 09:56:40;;;;;;;6.85;1.55;;;6.40;99.90;;;;;;5032329;28;20040;-71
2023/03/04 09:59:25;;;;;;;7.07;1.27;;;6.50;99.90;;;;;;5014569;28;20041;-71
2023/03/04 10:01:57;;;;;;;4.18;1.40;;;6.80;99.90;;;;;;5013762;28;20048;-71
2023/03/04 10:04:48;;;;;;;9.25;1.38;;;6.90;99.90;;;;;;5031973;28;20041;-71
2023/03/04 10:07:22;;;;;;;7.10;1.40;;;7.20;99.90;;;;;;5032032;28;20041;-71
2023/03/04 10:10:01;;;;;;;10.18;1.83;;;7.30;99.90;;;;;;5031811;28;20045;-69
2023/03/04 10:12:30;;;;;;;12.80;2.05;;;7.40;99.90;;;;;;5032111;28;20049;-71
2023/03/04 10:15:26;;;;;;;12.18;2.10;;;7.30;99.90;;;;;;5014111;28;20523;-70
2023/03/04 10:18:01;;;;;;;11.68;2.30;;;7.20;99.90;;;;;;5014180;28;20060;-71
2023/03/04 10:20:35;;;;;;;13.65;2.28;;;6.90;99.90;;;;;;5014192;28;20045;-70
2023/03/04 10:23:10;;;;;;;16.60;3.20;;;6.80;99.90;;;;;;5014004;28;20057;-72
2023/03/04 10:25:39;;;;;;;17.23;3.80;;;6.80;99.90;;;;;;5031893;28;20052;-72
2023/03/04 10:28:32;;;;;;;17.17;2.97;;;6.90;99.90;;;;;;5037839;22;20554;-74
2023/03/04 10:31:26;;;;;;;20.92;2.83;;;6.90;99.90;;;;;;5031279;28;20077;-72
2023/03/04 10:33:51;;;;;;;12.75;3.58;;;7.10;99.90;;;;;;5013856;28;20132;-72
2023/03/04 10:36:29;;;;;;;20.70;3.28;;;7.10;99.90;;;;;;5031359;28;20184;-72
2023/03/04 10:39:11;;;;;;;16.73;3.10;;;7.10;99.90;;;;;;5030901;28;20099;-72
2023/03/04 10:41:42;;;;;;;13.73;2.70;;;7.10;99.90;;;;;;5031789;28;20099;-72
2023/03/04 10:44:07;;;;;;;15.70;3.20;;;7.10;99.90;;;;;;5031059;28;20520;-72
2023/03/04 10:46:40;;;;;;;10.82;2.60;;;7.20;99.90;;;;;;5031381;28;20037;-72
2023/03/04 10:49:06;;;;;;;12.93;2.97;;;7.10;99.90;;;;;;5013741;28;20057;-71
2023/03/04 10:51:45;;;;;;;10.57;2.55;;;7.20;99.90;;;;;;5031490;28;20109;-72
2023/03/04 10:54:38;;;;;;;14.25;3.25;;;7.30;99.90;;;;;;5013353;28;20050;-72
2023/03/04 10:57:11;;;;;;;14.23;4.15;;;7.30;99.90;;;;;;5013237;28;20095;-73
2023/03/04 10:59:52;;;;;;;12.63;3.05;;;7.20;99.90;;;;;;5030506;28;20085;-74
2023/03/04 11:02:30;;;;;;;15.48;3.33;;;7.30;99.90;;;;;;5012980;28;20072;-73
2023/03/04 11:05:06;;;;;;;14.43;3.20;;;7.20;99.90;;;;;;5031662;28;20029;-74
2023/03/04 11:07:38;;;;;;;19.70;3.17;;;7.30;99.90;;;;;;5013539;28;20048;-73
2023/03/04 11:10:19;;;;;;;19.48;2.83;;;7.10;99.90;;;;;;5029321;28;20053;-72
2023/03/04 11:12:51;;;;;;;12.40;3.35;;;7.00;99.90;;;;;;5031206;28;20033;-72
2023/03/04 11:15:26;;;;;;;15.90;3.40;;;7.00;99.90;;;;;;5015531;28;20044;-72
2023/03/04 11:18:11;;;;;;;20.45;3.22;;;7.00;99.90;;;;;;5015835;28;20056;-72
2023/03/04 11:20:42;;;;;;;12.60;2.95;;;7.00;99.90;;;;;;5032930;28;20488;-73
2023/03/04 11:23:15;;;;;;;12.25;2.95;;;7.10;99.90;;;;;;5033142;28;20088;-73
2023/03/04 11:25:43;;;;;;;;;;;7.00;99.90;;;;;;5035622;28;20045;-72
2023/03/04 11:28:45;;;;;;;10.52;2.80;;;7.20;99.90;;;;;;5034728;28;20454;-72
2023/03/04 11:31:37;;;;;;;14.35;3.47;;;7.30;99.90;;;;;;5034051;28;20060;-73
2023/03/04 11:34:22;;;;;;;14.27;2.60;;;7.40;99.90;;;;;;5032038;28;20515;-73
2023/03/04 11:37:02;;;;;;;10.25;2.60;;;7.50;99.90;;;;;;5034726;28;20053;-73
2023/03/04 11:39:50;;;;;;;18.35;2.95;;;7.40;99.90;;;;;;5034631;28;20041;-72
2023/03/04 11:42:44;;;;;;;11.35;2.67;;;7.50;99.90;;;;;;5034757;28;20042;-73
2023/03/04 11:45:11;;;;;;;;;;;7.30;99.90;;;;;;5034639;28;20129;-73
2023/03/04 11:48:07;;;;;;;16.02;3.17;;;7.50;99.90;;;;;;5034728;28;19924;-73
2023/03/04 11:50:46;;;;;;;12.07;1.83;;;7.40;99.90;;;;;;5034592;28;20075;-73
2023/03/04 11:53:47;;;;;;;13.88;2.60;;;7.30;99.90;;;;;;5034190;28;20045;-73
2023/03/04 11:56:30;;;;;;;13.73;3.25;;;7.20;99.90;;;;;;5034441;28;20071;-72
2023/03/04 11:59:30;;;;;;;15.73;3.25;;;7.10;99.90;;;;;;5034372;28;20064;-73
2023/03/04 12:02:10;;;;;;;17.27;3.63;;;7.00;99.90;;;;;;5049779;28;20046;-73
2023/03/04 12:04:42;;;;;;;14.93;3.85;;;7.20;99.90;;;;;;5049570;28;20037;-72
2023/03/04 12:07:36;;;;;;;17.17;2.72;;;7.30;99.90;;;;;;5016681;28;20045;-72
2023/03/04 12:10:29;;;;;;;14.73;2.45;;;7.20;99.90;;;;;;5034289;28;20515;-73
2023/03/04 12:13:13;;;;;;;12.32;2.40;;;7.10;99.90;;;;;;5034213;28;20044;-73
2023/03/04 12:15:44;;;;;;;14.40;3.00;;;7.20;99.90;;;;;;5000143;28;20495;-73
2023/03/04 12:18:23;;;;;;;10.32;3.45;;;7.30;99.90;;;;;;5033918;28;20045;-73
2023/03/04 12:20:56;;;;;;;11.00;2.85;;;7.50;99.90;;;;;;5033528;28;20509;-73
2023/03/04 12:23:54;;;;;;;14.23;2.72;;;7.60;99.90;;;;;;5033331;28;20041;-73
2023/03/04 12:26:24;;;;;;;9.95;2.70;;;7.70;99.90;;;;;;5033804;28;20120;-73
2023/03/04 12:29:05;;;;;;;12.90;3.22;;;7.70;99.90;;;;;;5033765;28;20049;-73
2023/03/04 12:31:47;;;;;;;17.70;3.47;;;7.80;99.90;;;;;;5033935;28;20037;-73
2023/03/04 12:34:31;;;;;;;15.77;2.75;;;7.60;99.90;;;;;;5033689;28;20401;-73
2023/03/04 12:37:06;;;;;;;13.70;3.92;;;7.60;99.90;;;;;;5033884;28;20041;-73
2023/03/04 12:40:05;;;;;;;11.13;2.80;;;7.60;99.90;;;;;;5033514;28;20071;-73
2023/03/04 12:42:57;;;;;;;8.93;2.42;;;7.50;99.90;;;;;;5034025;28;20117;-73
2023/03/04 12:45:31;;;;;;;11.27;2.40;;;7.50;99.90;;;;;;5033700;28;20048;-73
2023/03/04 12:48:22;;;;;;;22.85;2.97;;;7.60;99.90;;;;;;5015904;28;20044;-73
2023/03/04 12:50:56;;;;;;;16.17;3.05;;;7.70;99.90;;;;;;5033510;28;20085;-73
2023/03/04 12:54:01;;;;;;;21.58;3.60;;;7.60;99.90;;;;;;5033245;28;20041;-73
2023/03/04 12:56:43;;;;;;;23.63;3.97;;;7.60;99.90;;;;;;5033630;28;20060;-73
2023/03/04 12:59:18;;;;;;;11.35;3.35;;;7.50;99.90;;;;;;5033224;28;20043;-72
2023/03/04 13:01:58;;;;;;;20.92;4.50;;;7.50;99.90;;;;;;5033302;28;20045;-73
2023/03/04 13:04:52;;;;;;;18.60;3.42;;;7.50;99.90;;;;;;5032712;28;20060;-73